ADDS TAF Board (Experimental) INFO

IDs: Format: Expanded Condensed

Updated at: 0515 UTC 29 Aug 2014

KSFO - San Francisco Intl, CA, US

Issued at 0315 UTC 29 Aug 2014
Time0456Z29/06Z29/07Z29/08Z29/09Z29/10Z29/11Z29/12Z29/13Z29/14Z29/15Z29/16Z29/17Z29/18Z
TypeOBSPRVLPRVLPRVLPRVLPRVLPRVLPRVLPRVLPRVLPRVLPRVLPRVLPRVL
VIS10>6>6>6>6>6>6>6>6>6>6>6>6>6
CIG----------88888888--
CoverFEWFEWFEWFEWFEWBKNBKNBKNBKNBKNBKNBKNBKNSCT
FltCat--VFRVFRVFRVFRIFRIFRIFRIFRIFRIFRIFRIFRVFR
WX----------------------------
WDir300300290290290290290290290290290290290290
WSpd914999777777775
WGst----------------------------
R01/19
XWnd914999777777775
HWnd01-1-1-1-1-1-1-1-1-1-1-1-1
R10/28
XWnd01-1-1-1-1-1-1-1-1-1-1-1-1
HWnd-9-14-9-9-9-7-7-7-7-7-7-7-7-5
Raw TAF
KSFO 290315Z 2903/3006 30014KT P6SM FEW007
  FM290700 29009KT P6SM FEW008
  FM291000 29007KT P6SM BKN008
  FM291800 29005KT P6SM SCT010
  FM292000 29022KT P6SM SKC


Raw METAR
KSFO 290456Z 30009KT 10SM FEW007 16/15 A2998 RMK AO2 SLP151 T01610150 $

TAF Board Legend

Hazard VFR MVFR IFR LIFR
Visibility (sm) >5 3≤X≤5 1≤X<3 <1
Ceiling (100 ft) >30 10≤X≤30 5≤X<10 <5
Wind Speed (kt) <10 10≤X<20 20≤X<30 ≥30
Wind Gust (kt) <15 15≤X<25 25≤X<35 ≥35
Weather No Wx Reported VCTS,-TS,-FZRA TS,FZRA +TS,+FZRA


Page loaded:  05:15 UTC  |   10:15 PM Pacific  |   11:15 PM Mountain  |   12:15 AM Central  |   01:15 AM Eastern

 

ADVISORIES

FORECASTS

FORECASTS

OBSERVATIONS

USER TOOLS

ABOUT US